Time;durP1;ratioP1;P1;durP2;ratioP2;P2;SDS_P1;SDS_P2;PMS_P1;PMS_P2;Temp;Humidity;BMP_temperature;BMP_pressure;BME280_temperature;BME280_humidity;BME280_pressure;Samples;Min_cycle;Max_cycle;Signal;HPM_P1;HPM_P2
2022/05/20 00:00:39;;;;;;;19.80;11.77;;;16.20;73.80;;;;;;4122242;28;20046;-85
2022/05/20 00:02:40;;;;;;;19.00;11.63;;;16.20;73.60;;;;;;4123148;28;20408;-85
2022/05/20 00:04:41;;;;;;;18.25;11.57;;;16.20;73.70;;;;;;4137177;28;20042;-85
2022/05/20 00:06:42;;;;;;;22.30;12.18;;;16.10;73.80;;;;;;4131322;28;20029;-84
2022/05/20 00:08:43;;;;;;;22.38;11.95;;;16.10;73.80;;;;;;4144059;28;20037;-84
2022/05/20 00:10:44;;;;;;;22.15;12.35;;;16.10;73.90;;;;;;4123247;28;20396;-85
2022/05/20 00:12:45;;;;;;;25.08;12.80;;;16.10;73.90;;;;;;4138267;28;20415;-86
2022/05/20 00:14:46;;;;;;;27.00;14.27;;;16.10;74.80;;;;;;4139326;28;20914;-86
2022/05/20 00:16:47;;;;;;;23.50;13.57;;;16.10;74.20;;;;;;4141254;28;20036;-85
2022/05/20 00:18:47;;;;;;;24.55;13.25;;;16.00;74.10;;;;;;4141335;28;20135;-86
2022/05/20 00:20:48;;;;;;;25.92;13.75;;;16.00;74.00;;;;;;4124386;28;20050;-85
2022/05/20 00:22:49;;;;;;;29.83;13.75;;;16.00;73.90;;;;;;4142268;28;20034;-85
2022/05/20 00:27:09;;;;;;;27.58;14.43;;;15.90;73.70;;;;;;4135342;28;22883;-85
2022/05/20 00:29:10;;;;;;;31.80;15.25;;;15.90;73.70;;;;;;4138781;28;20041;-86
2022/05/20 00:31:10;;;;;;;35.95;16.42;;;15.90;73.70;;;;;;4141388;28;20814;-85
2022/05/20 00:33:13;;;;;;;30.42;16.15;;;15.90;73.60;;;;;;4121716;28;20031;-85
2022/05/20 00:35:14;;;;;;;32.55;14.95;;;15.80;73.60;;;;;;4125161;28;20038;-84
2022/05/20 00:37:15;;;;;;;30.60;16.08;;;15.80;73.50;;;;;;4123891;28;20109;-85
2022/05/20 00:39:16;;;;;;;27.10;14.85;;;15.70;74.10;;;;;;4139390;28;20034;-85
2022/05/20 00:41:17;;;;;;;31.40;15.57;;;15.70;73.60;;;;;;4142627;28;20029;-85
2022/05/20 00:43:29;;;;;;;38.63;16.63;;;15.70;73.70;;;;;;4137269;28;20034;-86
2022/05/20 00:45:30;;;;;;;33.17;16.08;;;15.70;73.80;;;;;;4122011;28;20042;-84
2022/05/20 00:47:31;;;;;;;31.70;16.83;;;15.60;73.50;;;;;;4141551;28;20064;-86
2022/05/20 00:49:33;;;;;;;31.58;16.98;;;15.60;73.50;;;;;;4138719;28;20788;-85
2022/05/20 00:51:47;;;;;;;32.53;16.53;;;15.60;73.40;;;;;;4141239;28;20037;-84
2022/05/20 00:53:54;;;;;;;31.08;16.02;;;15.50;73.50;;;;;;4115782;28;20651;-85
2022/05/20 00:55:55;;;;;;;34.25;16.70;;;15.50;73.00;;;;;;4139084;28;20034;-83
2022/05/20 00:58:07;;;;;;;35.70;17.83;;;15.50;72.70;;;;;;4125093;28;20041;-84
2022/05/20 01:00:16;;;;;;;35.70;19.10;;;15.40;72.60;;;;;;4137726;28;20025;-85
2022/05/20 01:02:20;;;;;;;37.70;18.77;;;15.40;72.30;;;;;;4138172;28;20779;-85
2022/05/20 01:04:22;;;;;;;34.50;16.88;;;15.30;72.10;;;;;;4137697;28;20038;-86
2022/05/20 01:06:24;;;;;;;37.50;16.98;;;15.30;72.00;;;;;;4139388;28;20033;-85
2022/05/20 01:08:28;;;;;;;33.80;15.07;;;15.20;71.80;;;;;;4116839;28;21962;-85
2022/05/20 01:10:29;;;;;;;30.02;13.80;;;15.10;71.40;;;;;;4135822;28;20422;-85
2022/05/20 01:12:30;;;;;;;33.10;14.02;;;15.00;71.10;;;;;;4136090;28;20057;-85
2022/05/20 01:14:32;;;;;;;26.73;13.63;;;14.90;71.10;;;;;;4132605;28;20018;-84
2022/05/20 01:16:37;;;;;;;29.88;14.85;;;14.80;71.00;;;;;;4138497;28;20018;-85
2022/05/20 01:18:41;;;;;;;30.60;15.05;;;14.70;71.10;;;;;;4109159;28;20244;-84
2022/05/20 01:20:48;;;;;;;29.45;14.73;;;14.60;71.30;;;;;;4137728;28;20033;-83
2022/05/20 01:23:06;;;;;;;27.38;13.98;;;14.60;71.50;;;;;;4123675;28;20113;-85
2022/05/20 01:25:09;;;;;;;25.02;12.98;;;14.50;71.60;;;;;;4135929;28;20025;-85
2022/05/20 01:27:09;;;;;;;21.67;13.07;;;14.40;71.60;;;;;;4138693;28;20038;-85
2022/05/20 01:29:10;;;;;;;24.20;11.85;;;14.40;71.70;;;;;;4121901;28;20101;-85
2022/05/20 01:31:14;;;;;;;21.08;11.15;;;14.30;72.00;;;;;;4138306;28;20025;-85
2022/05/20 01:33:31;;;;;;;19.73;10.40;;;14.20;72.00;;;;;;4137122;28;20032;-85
2022/05/20 01:35:44;;;;;;;17.17;10.13;;;14.20;72.10;;;;;;4139189;28;20079;-84
2022/05/20 01:37:44;;;;;;;17.33;10.80;;;14.20;72.20;;;;;;4138373;28;20030;-85
2022/05/20 01:39:45;;;;;;;22.90;12.25;;;14.10;72.20;;;;;;4148861;28;20089;-84
2022/05/20 01:42:29;;;;;;;23.10;12.32;;;14.10;72.30;;;;;;4147863;28;20093;-84
2022/05/20 01:44:37;;;;;;;21.30;12.07;;;14.10;72.60;;;;;;4069215;29;20063;-85
2022/05/20 01:46:57;;;;;;;22.20;11.07;;;14.00;72.50;;;;;;4085619;28;20106;-85
2022/05/20 01:49:16;;;;;;;18.45;9.65;;;14.00;72.60;;;;;;4088101;28;20166;-84
2022/05/20 01:51:20;;;;;;;13.48;8.13;;;14.00;72.70;;;;;;4082213;28;20735;-84
2022/05/20 01:53:27;;;;;;;14.07;6.53;;;14.00;72.70;;;;;;4069069;29;20750;-84
2022/05/20 01:55:39;;;;;;;15.10;5.60;;;13.90;72.70;;;;;;4087990;28;20043;-83
2022/05/20 01:58:02;;;;;;;8.52;4.65;;;13.90;72.60;;;;;;4090461;28;20035;-85
2022/05/20 02:00:13;;;;;;;9.55;4.80;;;13.90;72.60;;;;;;4082787;28;20039;-85
2022/05/20 02:02:24;;;;;;;6.55;3.70;;;13.80;72.40;;;;;;4084575;28;20039;-85
2022/05/20 02:04:45;;;;;;;9.63;3.90;;;13.80;72.30;;;;;;4086024;28;20124;-85
2022/05/20 02:06:52;;;;;;;7.20;3.90;;;13.80;72.40;;;;;;4084142;28;20047;-83
2022/05/20 02:09:07;;;;;;;7.82;3.95;;;13.70;72.10;;;;;;4089565;28;20039;-84
2022/05/20 02:11:22;;;;;;;4.93;3.63;;;13.70;72.30;;;;;;4074873;29;20028;-85
2022/05/20 02:13:26;;;;;;;6.18;3.70;;;13.70;72.40;;;;;;4068742;29;20023;-86
2022/05/20 02:15:30;;;;;;;11.05;4.00;;;13.70;72.30;;;;;;4094108;28;20492;-83
2022/05/20 02:17:39;;;;;;;6.13;3.67;;;13.60;72.30;;;;;;4133517;28;20121;-84
2022/05/20 02:19:44;;;;;;;6.47;3.75;;;13.60;72.40;;;;;;4136647;28;20041;-85
2022/05/20 02:21:49;;;;;;;8.93;4.20;;;13.60;72.40;;;;;;4137194;28;21258;-85
2022/05/20 02:23:58;;;;;;;8.30;4.65;;;13.60;72.50;;;;;;4133535;28;20041;-84
2022/05/20 02:26:05;;;;;;;7.22;4.40;;;13.60;72.60;;;;;;4136726;28;20395;-85
2022/05/20 02:28:22;;;;;;;7.15;3.97;;;13.60;72.60;;;;;;4136891;28;20796;-85
2022/05/20 02:30:27;;;;;;;7.47;3.95;;;13.50;72.60;;;;;;4137682;28;20125;-84
2022/05/20 02:32:36;;;;;;;7.03;3.92;;;13.50;72.60;;;;;;4119095;28;20049;-85
2022/05/20 02:34:37;;;;;;;6.25;3.90;;;13.50;72.70;;;;;;4118713;28;20037;-84
2022/05/20 02:36:38;;;;;;;7.47;3.88;;;13.50;72.80;;;;;;4138715;28;20552;-85
2022/05/20 02:38:39;;;;;;;13.07;4.07;;;13.50;72.90;;;;;;4117635;28;20121;-84
2022/05/20 02:40:41;;;;;;;5.20;3.65;;;13.50;72.90;;;;;;4138029;28;20500;-84
2022/05/20 02:42:42;;;;;;;7.10;4.05;;;13.50;73.00;;;;;;4137073;28;20488;-85
2022/05/20 02:44:43;;;;;;;8.05;4.72;;;13.40;73.00;;;;;;4135819;28;20167;-84
2022/05/20 02:46:48;;;;;;;6.15;3.95;;;13.50;73.00;;;;;;4134083;28;20030;-85
2022/05/20 02:48:49;;;;;;;8.45;4.35;;;13.50;73.10;;;;;;4134571;28;20420;-85
2022/05/20 02:50:50;;;;;;;8.32;4.18;;;13.50;73.10;;;;;;4135404;28;20069;-84
2022/05/20 02:52:50;;;;;;;6.63;4.20;;;13.40;73.10;;;;;;4138441;28;20026;-85
2022/05/20 02:54:51;;;;;;;4.90;3.85;;;13.40;73.30;;;;;;4135630;28;20057;-85
2022/05/20 02:56:52;;;;;;;9.95;4.30;;;13.50;73.40;;;;;;4132107;28;20044;-84
2022/05/20 03:05:53;;;;;;;6.20;4.60;;;13.50;73.50;;;;;;4134712;28;20491;-85
2022/05/20 03:07:53;;;;;;;7.10;4.60;;;13.40;73.40;;;;;;4134687;28;20046;-85
2022/05/20 03:09:54;;;;;;;10.00;5.05;;;13.40;73.60;;;;;;4138583;28;20034;-84
2022/05/20 03:11:55;;;;;;;9.40;5.45;;;13.40;73.70;;;;;;4135262;28;20118;-84
2022/05/20 03:13:56;;;;;;;5.82;4.68;;;13.40;73.70;;;;;;4136836;28;20185;-84
2022/05/20 03:15:57;;;;;;;8.48;4.60;;;13.40;73.90;;;;;;4142259;28;20040;-84
2022/05/20 03:17:57;;;;;;;8.55;5.00;;;13.40;74.00;;;;;;4137104;28;20030;-83
2022/05/20 03:19:58;;;;;;;9.27;4.68;;;13.40;74.00;;;;;;4106660;28;20078;-84
2022/05/20 03:22:03;;;;;;;6.70;4.70;;;13.40;74.10;;;;;;4121160;28;20486;-83
2022/05/20 03:24:06;;;;;;;7.07;4.35;;;13.50;74.20;;;;;;4120045;28;20496;-84
2022/05/20 03:26:07;;;;;;;7.22;4.60;;;13.40;74.10;;;;;;4140419;28;21698;-85
2022/05/20 03:28:07;;;;;;;5.97;4.63;;;13.40;74.20;;;;;;4139724;28;20117;-85
2022/05/20 03:30:10;;;;;;;8.57;4.70;;;13.40;74.10;;;;;;4121186;28;20092;-84
2022/05/20 03:32:11;;;;;;;8.02;4.57;;;13.40;74.20;;;;;;4140504;28;20880;-85
2022/05/20 03:34:12;;;;;;;7.93;4.45;;;13.40;74.20;;;;;;4123187;28;20042;-85
2022/05/20 03:36:14;;;;;;;6.50;4.72;;;13.50;74.20;;;;;;4137527;28;20107;-85
2022/05/20 03:38:14;;;;;;;7.93;5.00;;;13.40;74.20;;;;;;4126483;28;20949;-84
2022/05/20 03:40:15;;;;;;;8.57;5.47;;;13.50;74.20;;;;;;4126521;28;20046;-85
2022/05/20 03:42:16;;;;;;;7.95;5.15;;;13.50;74.20;;;;;;4124593;28;20058;-84
2022/05/20 03:44:18;;;;;;;8.57;4.75;;;13.50;74.20;;;;;;4130495;28;20022;-85
2022/05/20 03:46:19;;;;;;;8.48;4.88;;;13.50;74.10;;;;;;4135846;28;20022;-84
2022/05/20 03:48:20;;;;;;;7.90;5.35;;;13.50;74.00;;;;;;4132958;28;20044;-85
2022/05/20 03:50:20;;;;;;;10.82;5.63;;;13.50;74.10;;;;;;4115013;28;20030;-84
2022/05/20 03:52:21;;;;;;;11.75;5.53;;;13.50;74.10;;;;;;4123271;28;20026;-84
2022/05/20 03:54:25;;;;;;;10.68;5.28;;;13.50;74.10;;;;;;4122761;28;20025;-84
2022/05/20 03:56:26;;;;;;;11.60;5.07;;;13.50;74.10;;;;;;4135335;28;20018;-85
2022/05/20 03:58:26;;;;;;;8.88;5.13;;;13.50;74.10;;;;;;4139216;28;20022;-85
2022/05/20 04:00:27;;;;;;;8.60;5.03;;;13.60;74.10;;;;;;4139632;28;20026;-84
2022/05/20 04:02:29;;;;;;;8.20;4.90;;;13.50;74.10;;;;;;4120708;28;20038;-84
2022/05/20 04:04:36;;;;;;;14.27;5.68;;;13.50;74.10;;;;;;4130497;28;20030;-84
2022/05/20 04:06:37;;;;;;;8.45;4.65;;;13.60;74.40;;;;;;4120822;28;20435;-84
2022/05/20 04:08:38;;;;;;;8.27;4.68;;;13.60;74.30;;;;;;4118537;28;20196;-84
2022/05/20 04:10:39;;;;;;;12.32;4.65;;;13.60;74.30;;;;;;4136135;28;20029;-85
2022/05/20 04:12:42;;;;;;;8.85;4.88;;;13.60;74.40;;;;;;4114826;28;20030;-85
2022/05/20 04:14:43;;;;;;;8.95;4.60;;;13.60;74.30;;;;;;4134573;28;20112;-85
2022/05/20 04:16:44;;;;;;;7.88;4.38;;;13.60;74.40;;;;;;4132999;28;20519;-84
2022/05/20 04:18:45;;;;;;;12.98;5.18;;;13.60;74.40;;;;;;4112853;28;20142;-85
2022/05/20 04:20:46;;;;;;;8.23;4.35;;;13.60;74.40;;;;;;4134939;28;20026;-85
2022/05/20 04:22:47;;;;;;;9.20;5.07;;;13.60;74.40;;;;;;4137121;28;20472;-85
2022/05/20 04:24:48;;;;;;;7.85;4.55;;;13.60;74.40;;;;;;4128699;28;20062;-86
2022/05/20 04:26:49;;;;;;;12.18;5.18;;;13.60;74.50;;;;;;4131312;28;20055;-84
2022/05/20 04:28:49;;;;;;;8.02;4.75;;;13.50;74.30;;;;;;4116467;28;20056;-84
2022/05/20 04:30:57;;;;;;;6.75;4.25;;;13.60;74.40;;;;;;4118068;28;20061;-85
2022/05/20 04:32:58;;;;;;;7.88;4.10;;;13.60;74.20;;;;;;4132887;28;20557;-84
2022/05/20 04:35:00;;;;;;;8.55;4.53;;;13.60;74.10;;;;;;4132555;28;20022;-85
2022/05/20 04:37:01;;;;;;;8.77;4.57;;;13.60;74.00;;;;;;4130172;28;20448;-83
2022/05/20 04:39:01;;;;;;;10.20;4.68;;;13.60;74.00;;;;;;4109792;28;20120;-84
2022/05/20 04:47:48;;;;;;;8.18;3.55;;;13.50;73.60;;;;;;4134498;28;20026;-84
2022/05/20 04:49:48;;;;;;;6.72;3.28;;;13.50;73.60;;;;;;4146586;28;20021;-83
2022/05/20 04:51:49;;;;;;;7.40;3.38;;;13.50;73.50;;;;;;4130415;28;20026;-85
2022/05/20 04:56:11;;;;;;;4.65;2.80;;;13.50;73.40;;;;;;4134589;28;20040;-84
2022/05/20 04:58:14;;;;;;;6.35;2.85;;;13.60;73.20;;;;;;4137948;28;22234;-83
2022/05/20 05:00:24;;;;;;;6.35;2.90;;;13.50;73.10;;;;;;4138567;28;20535;-84
2022/05/20 05:02:26;;;;;;;4.72;2.72;;;13.50;73.20;;;;;;4140002;28;20065;-85
2022/05/20 05:04:26;;;;;;;4.03;2.53;;;13.60;73.20;;;;;;4124787;28;20027;-84
2022/05/20 05:06:27;;;;;;;7.43;3.42;;;13.60;73.10;;;;;;4140395;28;20018;-85
2022/05/20 05:08:28;;;;;;;6.72;3.50;;;13.60;73.10;;;;;;4137688;28;20032;-83
2022/05/20 05:10:30;;;;;;;8.20;3.28;;;13.60;73.00;;;;;;4126817;28;20026;-85
2022/05/20 05:12:32;;;;;;;5.87;2.97;;;13.60;73.00;;;;;;4121411;28;20122;-85
2022/05/20 05:14:47;;;;;;;8.23;2.90;;;13.60;72.80;;;;;;4143073;28;20818;-85
2022/05/20 05:16:47;;;;;;;11.32;3.30;;;13.60;72.70;;;;;;4120104;28;20420;-84
2022/05/20 05:18:48;;;;;;;4.80;2.90;;;13.50;72.50;;;;;;4143562;28;20116;-85
2022/05/20 05:20:51;;;;;;;4.65;2.90;;;13.60;72.50;;;;;;4142608;28;20034;-85
2022/05/20 05:22:53;;;;;;;7.90;2.58;;;13.50;72.30;;;;;;4124224;28;20174;-83
2022/05/20 05:24:54;;;;;;;7.40;2.80;;;13.50;72.20;;;;;;4126726;28;20165;-83
2022/05/20 05:26:55;;;;;;;8.10;2.63;;;13.50;72.10;;;;;;4119763;28;20723;-83
2022/05/20 05:28:56;;;;;;;6.13;2.60;;;13.50;72.20;;;;;;4140857;28;20037;-83
2022/05/20 05:30:58;;;;;;;5.28;2.55;;;13.50;72.00;;;;;;4123396;28;20041;-83
2022/05/20 05:32:59;;;;;;;4.15;2.28;;;13.50;71.90;;;;;;4140554;28;20029;-83
2022/05/20 05:35:22;;;;;;;4.15;2.05;;;13.40;71.90;;;;;;4136600;28;20036;-82
2022/05/20 05:37:23;;;;;;;5.03;2.40;;;13.40;71.80;;;;;;4140231;28;20113;-83
2022/05/20 05:39:24;;;;;;;5.13;2.50;;;13.40;72.50;;;;;;4142194;28;20026;-81
2022/05/20 05:41:24;;;;;;;4.07;2.17;;;13.50;71.60;;;;;;4138495;28;20068;-83
2022/05/20 05:43:26;;;;;;;4.38;1.98;;;13.30;71.40;;;;;;4125286;28;20037;-83
2022/05/20 05:45:30;;;;;;;7.20;2.50;;;13.30;71.50;;;;;;4142193;28;20034;-84
2022/05/20 05:47:31;;;;;;;4.28;2.38;;;13.30;71.30;;;;;;4121868;28;20045;-84
2022/05/20 05:49:32;;;;;;;5.47;2.17;;;13.30;71.30;;;;;;4137895;28;20025;-83
2022/05/20 05:51:32;;;;;;;4.60;2.13;;;13.30;71.30;;;;;;4132285;28;20052;-84
2022/05/20 05:53:33;;;;;;;3.95;2.17;;;13.30;71.20;;;;;;4122791;28;20101;-81
2022/05/20 05:55:35;;;;;;;4.55;1.90;;;13.30;71.10;;;;;;4100273;28;20054;-83
2022/05/20 05:57:36;;;;;;;6.10;2.22;;;13.30;71.20;;;;;;4105922;28;20638;-83
2022/05/20 05:59:37;;;;;;;5.28;1.77;;;13.30;71.20;;;;;;4139605;28;20033;-83
2022/05/20 06:01:38;;;;;;;8.18;1.73;;;13.30;70.90;;;;;;4116971;28;20031;-83
2022/05/20 06:03:38;;;;;;;3.33;1.23;;;13.40;70.50;;;;;;4141441;28;20030;-83
2022/05/20 06:05:39;;;;;;;3.10;1.40;;;13.30;70.10;;;;;;4120464;28;20452;-84
2022/05/20 06:07:40;;;;;;;3.75;1.60;;;13.40;70.10;;;;;;4141032;28;20033;-83
2022/05/20 06:09:41;;;;;;;3.80;1.30;;;13.40;70.00;;;;;;4130454;28;20527;-84
2022/05/20 06:11:42;;;;;;;3.17;1.30;;;13.30;69.10;;;;;;4137899;28;20034;-84
2022/05/20 06:13:42;;;;;;;2.08;1.20;;;13.40;69.10;;;;;;4128850;28;20504;-83
2022/05/20 06:15:43;;;;;;;3.17;1.00;;;13.40;69.10;;;;;;4133453;28;20057;-83
2022/05/20 06:17:44;;;;;;;5.78;1.40;;;13.40;69.10;;;;;;4117840;28;20034;-84
2022/05/20 06:19:45;;;;;;;2.75;1.10;;;13.40;68.90;;;;;;4140934;28;20030;-85
2022/05/20 06:21:46;;;;;;;3.00;1.50;;;13.40;68.90;;;;;;4140904;28;20112;-84
2022/05/20 06:23:46;;;;;;;9.27;1.10;;;13.40;68.90;;;;;;4140150;28;20029;-83
2022/05/20 06:25:47;;;;;;;2.55;1.20;;;13.40;68.80;;;;;;4127717;28;20428;-84
2022/05/20 06:27:48;;;;;;;5.50;1.80;;;13.40;68.80;;;;;;4137051;28;20037;-85
2022/05/20 06:29:49;;;;;;;3.25;1.40;;;13.40;68.70;;;;;;4139622;28;20104;-82
2022/05/20 06:31:50;;;;;;;3.50;1.40;;;13.40;68.60;;;;;;4147862;28;20026;-85
2022/05/20 06:33:52;;;;;;;2.05;1.20;;;13.40;68.40;;;;;;4112682;28;20027;-84
2022/05/20 06:40:32;;;;;;;2.22;1.13;;;13.50;68.10;;;;;;4143892;28;20021;-84
2022/05/20 06:42:34;;;;;;;;;;;13.50;67.80;;;;;;4123787;28;20022;-83
2022/05/20 06:44:35;;;;;;;2.47;1.25;;;13.50;67.90;;;;;;4140316;28;19959;-84
2022/05/20 06:46:36;;;;;;;5.70;1.40;;;13.50;68.10;;;;;;4120233;28;20022;-83
2022/05/20 06:48:42;;;;;;;2.88;1.50;;;13.50;68.30;;;;;;4141163;28;20407;-84
2022/05/20 06:50:43;;;;;;;3.55;1.63;;;13.50;68.30;;;;;;4118536;28;20027;-83
2022/05/20 06:52:44;;;;;;;3.35;1.33;;;13.60;68.20;;;;;;4138084;28;20057;-84
2022/05/20 06:54:44;;;;;;;3.65;1.52;;;13.50;68.00;;;;;;4125281;28;20089;-84
2022/05/20 06:56:45;;;;;;;3.22;1.67;;;13.60;68.10;;;;;;4142008;28;20057;-82
2022/05/20 06:58:46;;;;;;;2.65;1.35;;;13.60;68.30;;;;;;4142182;28;20096;-83
2022/05/20 07:00:46;;;;;;;4.32;1.55;;;13.60;68.50;;;;;;4141433;28;20026;-84
2022/05/20 07:02:48;;;;;;;2.17;1.40;;;13.70;68.60;;;;;;4115920;28;20057;-84
2022/05/20 07:04:48;;;;;;;2.72;1.40;;;13.70;68.50;;;;;;4137422;28;20060;-83
2022/05/20 07:06:50;;;;;;;3.13;1.50;;;13.70;68.50;;;;;;4121783;28;20034;-83
2022/05/20 07:08:52;;;;;;;5.47;1.60;;;13.70;68.40;;;;;;4133181;28;20026;-84
2022/05/20 07:10:53;;;;;;;4.95;1.35;;;13.80;68.20;;;;;;4108775;28;20019;-84
2022/05/20 07:12:53;;;;;;;5.75;1.70;;;13.80;68.20;;;;;;4126227;28;20033;-83
2022/05/20 07:14:54;;;;;;;2.47;1.38;;;13.90;68.20;;;;;;4139937;28;20439;-86
2022/05/20 07:16:55;;;;;;;3.30;1.75;;;13.90;68.70;;;;;;4126236;28;20034;-83
2022/05/20 07:18:56;;;;;;;3.78;1.33;;;13.90;67.70;;;;;;4120667;28;20049;-82
2022/05/20 07:20:57;;;;;;;2.53;1.50;;;13.90;67.50;;;;;;4143429;28;20053;-84
2022/05/20 07:22:58;;;;;;;3.03;1.30;;;14.00;67.40;;;;;;4141570;28;20025;-83
2022/05/20 07:24:59;;;;;;;5.60;1.60;;;14.00;67.20;;;;;;4139090;28;20073;-84
2022/05/20 07:27:00;;;;;;;3.70;1.42;;;14.00;67.00;;;;;;4126646;28;20470;-84
2022/05/20 07:29:03;;;;;;;3.45;1.58;;;14.10;66.90;;;;;;4125057;28;20048;-83
2022/05/20 07:31:06;;;;;;;3.53;1.63;;;14.10;66.80;;;;;;4139176;28;20053;-83
2022/05/20 07:33:07;;;;;;;3.78;1.90;;;14.10;66.80;;;;;;4139669;28;20033;-83
2022/05/20 07:35:11;;;;;;;5.07;2.00;;;14.10;66.70;;;;;;4144251;28;20021;-83
2022/05/20 07:37:12;;;;;;;5.00;2.28;;;14.10;66.60;;;;;;4104222;28;20035;-83
2022/05/20 07:39:33;;;;;;;3.22;2.03;;;14.20;66.60;;;;;;4140060;28;20038;-83
2022/05/20 07:41:35;;;;;;;4.90;2.50;;;14.20;66.60;;;;;;4123538;28;20041;-83
2022/05/20 07:43:55;;;;;;;3.85;2.20;;;14.20;66.60;;;;;;4139304;28;21126;-84
2022/05/20 07:45:56;;;;;;;4.88;2.03;;;14.20;66.60;;;;;;4141637;28;20093;-82
2022/05/20 07:48:19;;;;;;;3.42;1.95;;;14.20;66.40;;;;;;4134855;28;20400;-83
2022/05/20 07:50:43;;;;;;;4.20;2.20;;;14.20;66.50;;;;;;4142074;28;20484;-83
2022/05/20 07:53:22;;;;;;;;;;;14.20;66.40;;;;;;4142007;28;20460;-83
2022/05/20 07:55:47;;;;;;;3.42;1.92;;;14.20;66.50;;;;;;4121029;28;19917;-83
2022/05/20 07:58:12;;;;;;;3.78;2.10;;;14.30;66.50;;;;;;4123094;28;20035;-83
2022/05/20 08:00:34;;;;;;;3.53;1.80;;;14.30;66.40;;;;;;4139719;28;20100;-83
2022/05/20 08:02:59;;;;;;;6.88;2.22;;;14.20;66.40;;;;;;4138920;28;20620;-83
2022/05/20 08:05:21;;;;;;;3.90;2.03;;;14.20;66.40;;;;;;4138928;28;20084;-84
2022/05/20 08:07:44;;;;;;;6.90;2.17;;;14.30;66.20;;;;;;4140511;28;20069;-84
2022/05/20 08:10:06;;;;;;;3.38;2.38;;;14.20;66.00;;;;;;4139459;28;20034;-83
2022/05/20 08:12:27;;;;;;;4.68;2.22;;;14.20;65.80;;;;;;4142158;28;20041;-83
2022/05/20 08:14:49;;;;;;;3.40;2.28;;;14.20;65.80;;;;;;4133531;28;20520;-84
2022/05/20 08:17:09;;;;;;;6.78;2.20;;;14.20;65.60;;;;;;4135229;28;20033;-83
2022/05/20 08:19:30;;;;;;;5.50;2.20;;;14.20;65.80;;;;;;4140238;28;20129;-83
2022/05/20 08:21:51;;;;;;;4.07;2.30;;;14.20;66.00;;;;;;4140803;28;20048;-84
2022/05/20 08:24:11;;;;;;;11.80;2.55;;;14.20;66.10;;;;;;4143211;28;20403;-84
2022/05/20 08:26:32;;;;;;;3.70;2.20;;;14.20;66.10;;;;;;4134908;28;20385;-83
2022/05/20 08:28:53;;;;;;;4.05;2.30;;;14.20;66.30;;;;;;4139238;28;20029;-84
2022/05/20 08:31:15;;;;;;;3.70;2.22;;;14.20;66.50;;;;;;4139307;28;20498;-83
2022/05/20 08:33:36;;;;;;;3.65;2.13;;;14.30;66.60;;;;;;4140266;28;20423;-84
2022/05/20 08:35:58;;;;;;;6.82;2.10;;;14.30;66.70;;;;;;4144350;28;20688;-83
2022/05/20 08:38:21;;;;;;;2.88;1.77;;;14.30;66.60;;;;;;4138426;28;20038;-84
2022/05/20 08:40:45;;;;;;;4.72;1.80;;;14.40;66.00;;;;;;4139779;28;20069;-83
2022/05/20 08:43:06;;;;;;;3.55;1.67;;;14.40;65.30;;;;;;4140963;28;20416;-84
2022/05/20 08:45:29;;;;;;;5.78;1.90;;;14.50;65.00;;;;;;4139463;28;20541;-85
2022/05/20 08:47:52;;;;;;;2.35;1.55;;;14.50;64.60;;;;;;4143119;28;20084;-83
2022/05/20 08:50:18;;;;;;;5.43;1.98;;;14.50;64.60;;;;;;4142262;28;20598;-83
2022/05/20 08:52:39;;;;;;;3.58;1.98;;;14.60;64.80;;;;;;4125072;28;20030;-84
2022/05/20 08:55:00;;;;;;;6.22;1.73;;;14.60;64.90;;;;;;4142975;28;20092;-83
2022/05/20 08:57:32;;;;;;;4.43;2.03;;;14.70;64.90;;;;;;4125292;28;20061;-83
2022/05/20 08:59:52;;;;;;;4.85;2.10;;;14.70;65.00;;;;;;4143209;28;20034;-83
2022/05/20 09:02:13;;;;;;;3.70;2.20;;;14.80;64.80;;;;;;4143567;28;20117;-83
2022/05/20 09:04:33;;;;;;;4.63;1.60;;;14.90;64.80;;;;;;4140676;28;21259;-83
2022/05/20 09:07:12;;;;;;;4.50;2.10;;;14.90;64.80;;;;;;4149516;28;20743;-83
2022/05/20 09:09:55;;;;;;;4.63;2.05;;;15.00;64.60;;;;;;4126281;28;20041;-83
2022/05/20 09:12:35;;;;;;;2.90;1.70;;;15.10;64.30;;;;;;4137825;28;20498;-84
2022/05/20 09:18:11;;;;;;;5.65;2.17;;;15.30;62.90;;;;;;4144927;28;20399;-84
2022/05/20 09:20:30;;;;;;;4.00;2.03;;;15.40;63.10;;;;;;4139289;28;20049;-84
2022/05/20 09:23:04;;;;;;;3.08;2.03;;;15.50;62.80;;;;;;4141033;28;20056;-84
2022/05/20 09:25:29;;;;;;;4.70;2.20;;;15.60;62.70;;;;;;4139445;28;20033;-84
2022/05/20 09:27:51;;;;;;;3.95;2.40;;;15.60;61.90;;;;;;4135515;28;20057;-84
2022/05/20 09:30:19;;;;;;;3.80;2.10;;;15.70;61.60;;;;;;4125920;28;20049;-84
2022/05/20 09:32:43;;;;;;;7.60;1.92;;;15.70;60.60;;;;;;4141965;28;20119;-84
2022/05/20 09:35:05;;;;;;;;;;;15.80;60.60;;;;;;4142027;28;20168;-84
2022/05/20 09:37:30;;;;;;;3.45;1.90;;;15.80;60.50;;;;;;4143036;28;19959;-84
2022/05/20 09:39:50;;;;;;;4.30;1.80;;;15.80;60.10;;;;;;4137012;28;20045;-84
2022/05/20 09:42:19;;;;;;;4.80;1.80;;;15.90;60.50;;;;;;4142916;28;20037;-84
2022/05/20 09:44:42;;;;;;;8.80;1.73;;;15.90;60.60;;;;;;4142292;28;20065;-83
2022/05/20 09:47:10;;;;;;;3.50;1.73;;;16.00;60.10;;;;;;4129554;28;20049;-84
2022/05/20 09:49:54;;;;;;;5.15;1.52;;;16.10;59.60;;;;;;4144678;28;20080;-85
2022/05/20 09:52:22;;;;;;;7.45;1.90;;;16.20;59.00;;;;;;4143988;28;20033;-85
2022/05/20 09:54:48;;;;;;;4.28;1.80;;;16.20;59.00;;;;;;4144088;28;20045;-85
2022/05/20 09:57:27;;;;;;;4.13;1.95;;;16.30;58.90;;;;;;4142123;28;20063;-84
2022/05/20 10:00:07;;;;;;;5.20;1.80;;;16.30;58.30;;;;;;4141764;28;20040;-85
2022/05/20 10:02:54;;;;;;;4.93;1.65;;;16.40;58.20;;;;;;4142197;28;20121;-84
2022/05/20 10:05:41;;;;;;;5.10;1.70;;;16.40;57.80;;;;;;4137948;28;20040;-85
2022/05/20 10:08:28;;;;;;;2.42;1.50;;;16.40;57.20;;;;;;4141484;28;20085;-85
2022/05/20 10:11:12;;;;;;;4.00;1.40;;;16.50;57.80;;;;;;4142118;28;20080;-84
2022/05/20 10:13:40;;;;;;;3.28;1.60;;;16.50;57.70;;;;;;4139507;28;20037;-86
2022/05/20 10:16:37;;;;;;;6.07;2.00;;;16.60;57.80;;;;;;4127439;28;20515;-84
2022/05/20 10:19:52;;;;;;;5.28;1.60;;;16.60;57.40;;;;;;4070163;29;20035;-84
2022/05/20 10:22:39;;;;;;;4.45;1.83;;;16.60;57.00;;;;;;4056897;29;20047;-86
2022/05/20 10:25:05;;;;;;;4.85;1.83;;;16.60;56.90;;;;;;4058596;29;20091;-86
2022/05/20 10:28:13;;;;;;;2.95;1.70;;;16.70;56.80;;;;;;4057163;29;20120;-85
2022/05/20 10:33:19;;;;;;;8.82;2.13;;;16.70;56.50;;;;;;4056665;29;20068;-85
2022/05/20 10:35:58;;;;;;;6.18;1.55;;;16.80;56.70;;;;;;4057400;29;20452;-84
2022/05/20 10:38:38;;;;;;;4.82;1.58;;;16.80;56.60;;;;;;4057218;29;20047;-85
2022/05/20 10:41:29;;;;;;;4.97;1.60;;;16.80;56.20;;;;;;4058681;29;20508;-84
2022/05/20 10:50:04;;;;;;;7.05;1.80;;;17.00;56.70;;;;;;4028445;29;20112;-85
2022/05/20 10:52:26;;;;;;;3.03;1.58;;;17.10;57.00;;;;;;4027137;29;20036;-85
2022/05/20 10:54:58;;;;;;;4.13;1.60;;;17.10;56.50;;;;;;4042253;29;20062;-85
2022/05/20 10:57:52;;;;;;;3.80;1.50;;;17.20;56.50;;;;;;4089580;28;20051;-86
2022/05/20 11:00:20;;;;;;;5.57;1.42;;;17.20;56.10;;;;;;4090691;28;20049;-85
2022/05/20 11:03:11;;;;;;;4.50;1.38;;;17.30;56.20;;;;;;4086368;28;20102;-86
2022/05/20 11:05:49;;;;;;;4.13;1.60;;;17.30;56.40;;;;;;4085011;28;20053;-84
2022/05/20 11:08:32;;;;;;;3.95;1.88;;;17.40;56.00;;;;;;4079591;28;20046;-85
2022/05/20 11:10:57;;;;;;;3.17;1.90;;;17.50;56.00;;;;;;4082788;28;20054;-85
2022/05/20 11:13:55;;;;;;;6.80;2.42;;;17.50;55.60;;;;;;4084750;28;20109;-85
2022/05/20 11:16:44;;;;;;;5.47;2.53;;;17.60;54.60;;;;;;4082051;28;20365;-84
2022/05/20 11:19:27;;;;;;;5.95;2.30;;;17.60;53.50;;;;;;4092026;28;20127;-85
2022/05/20 11:21:56;;;;;;;4.43;1.83;;;17.60;53.90;;;;;;4113750;28;20498;-85
2022/05/20 11:24:24;;;;;;;8.38;2.33;;;17.70;54.20;;;;;;4132416;28;21559;-84
2022/05/20 11:26:52;;;;;;;3.17;1.65;;;17.70;54.30;;;;;;4143524;28;20040;-85
2022/05/20 11:29:34;;;;;;;5.35;1.70;;;17.80;54.40;;;;;;4132448;28;20497;-84
2022/05/20 11:32:05;;;;;;;6.68;1.75;;;17.80;53.70;;;;;;4110330;28;20076;-85
2022/05/20 11:34:15;;;;;;;2.67;1.58;;;17.90;53.90;;;;;;4127513;28;20026;-86
2022/05/20 11:36:34;;;;;;;5.38;1.50;;;17.90;53.70;;;;;;4126345;28;20539;-85
2022/05/20 11:39:11;;;;;;;4.00;2.00;;;17.90;53.70;;;;;;4132533;28;20562;-83
2022/05/20 11:41:33;;;;;;;6.88;2.00;;;18.00;53.60;;;;;;4127077;28;20116;-84
2022/05/20 11:44:09;;;;;;;3.25;1.65;;;18.00;53.50;;;;;;4124729;28;20101;-84
2022/05/20 11:46:38;;;;;;;5.45;1.88;;;18.10;52.30;;;;;;4090116;28;20046;-83
2022/05/20 11:48:39;;;;;;;4.47;1.40;;;18.20;52.40;;;;;;4135143;28;20224;-84
2022/05/20 11:51:09;;;;;;;6.25;1.60;;;18.20;52.80;;;;;;4143999;28;20030;-84
2022/05/20 11:53:23;;;;;;;4.13;1.70;;;18.30;52.50;;;;;;4111977;28;20076;-84
2022/05/20 11:55:36;;;;;;;2.15;1.60;;;18.30;51.40;;;;;;4119570;28;20085;-84